createdAt,value
2017-11-25T00:00:44.711Z,8.53
2017-11-25T00:03:13.025Z,7.00
2017-11-25T00:05:40.561Z,5.27
2017-11-25T00:08:08.096Z,7.20
2017-11-25T00:10:36.427Z,7.30
2017-11-25T00:13:03.957Z,5.00
2017-11-25T00:15:31.512Z,3.90
2017-11-25T00:17:59.046Z,5.10
2017-11-25T00:20:26.599Z,9.03
2017-11-25T00:22:54.140Z,5.23
2017-11-25T00:25:21.698Z,4.90
2017-11-25T00:27:49.222Z,4.70
2017-11-25T00:30:16.776Z,4.33
2017-11-25T00:32:44.311Z,4.13
2017-11-25T00:35:11.864Z,4.43
2017-11-25T00:37:39.388Z,6.40
2017-11-25T00:40:06.969Z,7.37
2017-11-25T00:42:34.510Z,6.57
2017-11-25T00:45:02.090Z,4.80
2017-11-25T00:47:29.641Z,5.93
2017-11-25T00:49:57.227Z,5.53
2017-11-25T00:52:25.560Z,6.50
2017-11-25T00:54:53.133Z,7.50
2017-11-25T00:57:20.685Z,5.87
2017-11-25T00:59:48.239Z,5.10
2017-11-25T01:02:15.774Z,5.67
2017-11-25T01:04:43.351Z,7.47
2017-11-25T01:07:10.886Z,7.60
2017-11-25T01:09:38.459Z,6.97
2017-11-25T01:12:06.002Z,8.67
2017-11-25T01:14:34.333Z,6.80
2017-11-25T01:17:01.882Z,7.03
2017-11-25T01:19:29.444Z,8.50
2017-11-25T01:21:56.985Z,9.70
2017-11-25T01:24:24.554Z,7.67
2017-11-25T01:26:52.093Z,8.23
2017-11-25T01:29:19.657Z,10.43
2017-11-25T01:31:47.191Z,8.17
2017-11-25T01:34:15.524Z,9.83
2017-11-25T01:36:43.057Z,10.30
2017-11-25T01:39:10.610Z,10.07
2017-11-25T01:41:38.162Z,11.47
2017-11-25T01:44:05.735Z,12.23
2017-11-25T01:46:33.279Z,11.97
2017-11-25T01:49:01.604Z,11.17
2017-11-25T01:51:29.148Z,14.03
2017-11-25T01:53:56.711Z,12.03
2017-11-25T01:56:24.256Z,12.37
2017-11-25T01:58:51.812Z,10.77
2017-11-25T02:01:19.343Z,13.90
2017-11-25T02:03:47.683Z,11.70
2017-11-25T02:06:15.240Z,12.90
2017-11-25T02:08:42.823Z,13.83
2017-11-25T02:11:10.368Z,12.63
2017-11-25T02:13:37.939Z,11.90
2017-11-25T02:16:05.479Z,13.83
2017-11-25T02:18:33.019Z,17.33
2017-11-25T02:21:00.595Z,16.53
2017-11-25T02:23:28.131Z,17.40
2017-11-25T02:25:55.704Z,19.73
2017-11-25T02:28:23.250Z,14.87
2017-11-25T02:30:50.816Z,19.97
2017-11-25T02:33:18.357Z,18.17
2017-11-25T02:35:45.925Z,20.60
2017-11-25T02:38:13.479Z,20.87
2017-11-25T02:40:41.051Z,19.73
2017-11-25T02:43:08.676Z,19.40
2017-11-25T02:45:36.246Z,18.43
2017-11-25T02:48:03.793Z,22.30
2017-11-25T02:50:31.368Z,17.90
2017-11-25T02:52:59.668Z,18.53
2017-11-25T02:55:27.238Z,17.30
2017-11-25T02:57:54.771Z,19.10
2017-11-25T03:00:22.327Z,20.73
2017-11-25T03:02:49.882Z,19.97
2017-11-25T03:05:18.208Z,24.93
2017-11-25T03:07:45.740Z,19.63
2017-11-25T03:10:13.307Z,22.07
2017-11-25T03:12:40.867Z,22.70
2017-11-25T03:15:08.428Z,23.90
2017-11-25T03:17:35.975Z,21.10
2017-11-25T03:20:03.547Z,24.70
2017-11-25T03:22:31.091Z,20.70
2017-11-25T03:24:58.659Z,25.40
2017-11-25T03:27:26.202Z,26.63
2017-11-25T03:33:03.855Z,23.57
2017-11-25T03:35:31.435Z,27.13
2017-11-25T03:37:58.974Z,24.80
2017-11-25T03:40:26.534Z,25.43
2017-11-25T03:42:54.071Z,23.23
2017-11-25T03:45:21.633Z,20.67
2017-11-25T03:47:49.165Z,22.37
2017-11-25T03:50:17.495Z,23.40
2017-11-25T03:52:45.031Z,25.37
2017-11-25T03:55:12.584Z,26.00
2017-11-25T03:57:40.120Z,25.67
2017-11-25T04:00:08.452Z,26.97
2017-11-25T04:02:35.989Z,30.83
2017-11-25T04:05:03.555Z,29.23
2017-11-25T04:07:31.089Z,33.70
2017-11-25T04:09:58.665Z,33.27
2017-11-25T04:12:26.199Z,23.67
2017-11-25T04:14:54.544Z,32.30
2017-11-25T04:17:22.083Z,21.90
2017-11-25T04:19:49.652Z,24.20
2017-11-25T04:22:17.191Z,19.17
2017-11-25T04:24:44.748Z,16.37
2017-11-25T04:27:12.281Z,16.03
2017-11-25T04:29:40.601Z,12.60
2017-11-25T04:32:08.143Z,13.27
2017-11-25T04:34:35.695Z,11.97
2017-11-25T04:37:03.226Z,9.60
2017-11-25T04:39:30.788Z,12.23
2017-11-25T04:41:59.100Z,9.97
2017-11-25T04:44:26.664Z,10.40
2017-11-25T04:46:54.196Z,9.47
2017-11-25T04:49:22.517Z,11.70
2017-11-25T04:51:50.052Z,11.13
2017-11-25T04:54:17.613Z,10.40
2017-11-25T04:56:45.142Z,11.00
2017-11-25T04:59:13.492Z,12.93
2017-11-25T05:01:41.060Z,12.17
2017-11-25T05:04:08.623Z,14.17
2017-11-25T05:06:36.186Z,10.67
2017-11-25T05:09:03.729Z,14.60
2017-11-25T05:11:31.287Z,14.53
2017-11-25T05:13:58.825Z,14.17
2017-11-25T05:16:26.380Z,17.67
2017-11-25T05:18:53.924Z,14.03
2017-11-25T05:21:21.497Z,17.60
2017-11-25T05:23:49.035Z,15.00
2017-11-25T05:26:17.359Z,15.57
2017-11-25T05:28:44.895Z,16.17
2017-11-25T05:31:12.450Z,17.57
2017-11-25T05:33:39.984Z,16.00
2017-11-25T05:36:08.318Z,13.77
2017-11-25T05:38:35.882Z,14.73
2017-11-25T05:41:04.188Z,16.77
2017-11-25T05:43:31.712Z,18.63
2017-11-25T05:45:59.267Z,16.30
2017-11-25T05:48:26.803Z,12.27
2017-11-25T05:50:54.364Z,14.83
2017-11-25T05:53:21.900Z,16.20
2017-11-25T05:55:50.227Z,12.83
2017-11-25T05:58:17.760Z,17.10
2017-11-25T06:00:45.302Z,12.50
2017-11-25T06:03:13.626Z,17.00
2017-11-25T06:05:41.166Z,15.33
2017-11-25T06:08:08.719Z,16.87
2017-11-25T06:10:36.252Z,15.20
2017-11-25T06:13:04.567Z,14.03
2017-11-25T06:15:32.100Z,16.67
2017-11-25T06:17:59.649Z,14.37
2017-11-25T06:20:27.935Z,20.10
2017-11-25T06:22:55.491Z,19.93
2017-11-25T06:25:23.801Z,17.73
2017-11-25T06:27:51.352Z,14.00
2017-11-25T06:51:28.511Z,16.10
2017-11-25T06:53:56.068Z,13.83
2017-11-25T06:56:23.611Z,15.73
2017-11-25T06:58:51.182Z,13.50
2017-11-25T07:01:18.724Z,19.00
2017-11-25T07:03:46.289Z,17.13
2017-11-25T07:06:13.827Z,18.50
2017-11-25T07:08:41.387Z,16.57
2017-11-25T07:11:08.917Z,12.97
2017-11-25T07:13:36.477Z,16.10
2017-11-25T07:16:04.028Z,14.57
2017-11-25T07:18:31.608Z,13.73
2017-11-25T07:20:59.936Z,14.90
2017-11-25T07:23:27.496Z,22.53
2017-11-25T07:25:55.054Z,20.03
2017-11-25T07:28:22.618Z,17.93
2017-11-25T07:30:50.168Z,19.37
2017-11-25T07:33:17.740Z,10.47
2017-11-25T07:35:45.311Z,12.60
2017-11-25T07:38:12.866Z,15.03
2017-11-25T07:40:40.419Z,17.67
2017-11-25T07:43:07.967Z,18.53
2017-11-25T07:45:35.516Z,18.67
2017-11-25T07:48:03.056Z,16.23
2017-11-25T07:50:30.619Z,15.87
2017-11-25T07:52:58.160Z,15.50
2017-11-25T07:55:26.490Z,10.17
2017-11-25T07:57:54.021Z,11.60
2017-11-25T08:00:21.581Z,11.10
2017-11-25T08:02:49.117Z,8.40
2017-11-25T08:05:17.463Z,11.13
2017-11-25T08:07:44.991Z,13.03
2017-11-25T08:10:12.545Z,12.20
2017-11-25T08:12:40.080Z,10.43
2017-11-25T08:15:08.396Z,6.37
2017-11-25T08:17:35.927Z,9.60
2017-11-25T08:20:03.481Z,6.73
2017-11-25T08:22:31.019Z,8.43
2017-11-25T08:24:58.579Z,7.50
2017-11-25T08:27:26.113Z,7.67
2017-11-25T08:29:53.686Z,10.67
2017-11-25T08:32:21.232Z,13.63
2017-11-25T08:34:49.565Z,7.97
2017-11-25T08:37:17.119Z,8.87
2017-11-25T08:39:45.465Z,11.70
2017-11-25T08:42:13.121Z,9.20
2017-11-25T08:44:40.715Z,11.07
2017-11-25T08:47:09.015Z,10.57
2017-11-25T08:49:36.557Z,11.87
2017-11-25T08:52:04.123Z,10.63
2017-11-25T08:54:31.663Z,11.93
2017-11-25T08:56:59.992Z,10.40
2017-11-25T08:59:27.545Z,12.80
2017-11-25T09:01:55.123Z,12.97
2017-11-25T09:04:22.671Z,11.90
2017-11-25T09:06:50.239Z,13.70
2017-11-25T09:09:17.779Z,13.47
2017-11-25T09:11:45.343Z,14.60
2017-11-25T09:14:12.898Z,16.83
2017-11-25T09:16:40.463Z,13.77
2017-11-25T09:19:08.003Z,15.90
2017-11-25T09:21:35.562Z,16.50
2017-11-25T09:24:03.100Z,18.70
2017-11-25T09:26:31.423Z,15.90
2017-11-25T09:28:58.988Z,14.23
2017-11-25T09:31:26.552Z,13.70
2017-11-25T09:33:54.082Z,14.23
2017-11-25T09:36:21.644Z,15.00
2017-11-25T09:38:49.176Z,14.70
2017-11-25T09:41:17.567Z,15.50
2017-11-25T09:43:45.116Z,16.70
2017-11-25T09:46:13.459Z,13.50
2017-11-25T09:48:41.011Z,19.00
2017-11-25T09:51:08.626Z,10.80
2017-11-25T09:53:36.172Z,14.10
2017-11-25T09:56:04.508Z,15.57
2017-11-25T09:58:32.035Z,14.30
2017-11-25T10:00:59.596Z,14.87
2017-11-25T10:03:27.142Z,17.67
2017-11-25T10:05:55.470Z,15.33
2017-11-25T10:08:23.018Z,18.37
2017-11-25T10:10:51.043Z,13.37
2017-11-25T10:13:18.613Z,11.80
2017-11-25T10:15:46.648Z,14.33
2017-11-25T10:18:14.196Z,16.17
2017-11-25T10:20:41.758Z,14.07
2017-11-25T10:23:09.280Z,12.30
2017-11-25T10:25:36.839Z,12.10
2017-11-25T10:28:04.394Z,12.70
2017-11-25T10:30:31.935Z,11.53
2017-11-25T10:33:00.277Z,12.47
2017-11-25T10:35:28.008Z,13.87
2017-11-25T10:37:55.571Z,8.60
2017-11-25T10:40:23.101Z,9.27
2017-11-25T10:42:52.077Z,11.20
2017-11-25T10:45:20.763Z,11.20
2017-11-25T10:47:48.401Z,10.67
2017-11-25T10:50:15.928Z,12.63
2017-11-25T10:52:43.488Z,13.03
2017-11-25T10:55:11.032Z,14.90
2017-11-25T10:57:38.605Z,12.27
2017-11-25T11:00:06.154Z,12.97
2017-11-25T11:02:33.780Z,14.77
2017-11-25T11:05:01.308Z,13.20
2017-11-25T11:07:28.871Z,16.50
2017-11-25T11:09:56.636Z,12.90
2017-11-25T11:12:24.191Z,11.20
2017-11-25T11:14:51.721Z,8.97
2017-11-25T11:17:19.275Z,9.97
2017-11-25T11:19:46.809Z,9.03
2017-11-25T11:22:15.134Z,17.37
2017-11-25T11:24:42.671Z,17.50
2017-11-25T11:27:10.238Z,17.00
2017-11-25T11:29:37.784Z,19.27
2017-11-25T11:32:05.335Z,9.97
2017-11-25T11:34:33.626Z,8.60
2017-11-25T11:37:01.192Z,7.37
2017-11-25T11:39:28.714Z,9.70
2017-11-25T11:41:56.284Z,5.90
2017-11-25T11:44:24.587Z,6.90
2017-11-25T11:46:52.140Z,6.90
2017-11-25T11:49:19.675Z,8.03
2017-11-25T11:51:47.995Z,6.67
2017-11-25T11:54:15.530Z,5.87
2017-11-25T11:56:43.111Z,5.23
2017-11-25T11:59:10.653Z,4.93
2017-11-25T12:01:38.205Z,5.30
2017-11-25T12:04:06.499Z,4.77
2017-11-25T12:06:34.061Z,5.30
2017-11-25T12:09:01.593Z,4.90
2017-11-25T12:11:29.916Z,5.17
2017-11-25T12:13:57.447Z,3.70
2017-11-25T12:16:25.769Z,4.83
2017-11-25T12:18:53.284Z,3.70
2017-11-25T12:21:20.845Z,4.53
2017-11-25T12:23:48.372Z,5.27
2017-11-25T12:26:15.920Z,5.50
2017-11-25T12:28:43.452Z,4.30
2017-11-25T12:31:11.007Z,4.70
2017-11-25T12:33:38.544Z,9.63
2017-11-25T12:36:06.118Z,5.37
2017-11-25T12:38:33.680Z,8.67
2017-11-25T12:41:01.219Z,10.10
2017-11-25T12:43:28.775Z,8.10
2017-11-25T12:45:57.085Z,5.83
2017-11-25T12:48:25.408Z,6.90
2017-11-25T12:50:53.756Z,3.97
2017-11-25T12:53:21.321Z,5.00
2017-11-25T12:55:48.863Z,4.80
2017-11-25T12:58:16.430Z,4.00
2017-11-25T13:00:43.960Z,4.70
2017-11-25T13:03:11.513Z,7.00
2017-11-25T13:05:39.052Z,4.70
2017-11-25T13:08:07.392Z,4.73
2017-11-25T13:10:34.925Z,5.40
2017-11-25T13:13:02.488Z,5.23
2017-11-25T13:15:30.022Z,4.47
2017-11-25T13:17:58.350Z,2.20
2017-11-25T13:20:25.884Z,3.90
2017-11-25T13:22:53.437Z,3.10
2017-11-25T13:25:20.978Z,2.47
2017-11-25T13:27:49.310Z,3.80
2017-11-25T13:30:16.849Z,3.20
2017-11-25T13:32:44.393Z,2.93
2017-11-25T13:35:11.920Z,3.67
2017-11-25T13:37:39.490Z,2.73
2017-11-25T13:40:07.789Z,4.33
2017-11-25T13:42:35.351Z,3.13
2017-11-25T13:45:02.881Z,3.57
2017-11-25T13:47:30.486Z,3.07
2017-11-25T13:49:58.012Z,4.13
2017-11-25T13:52:26.341Z,4.30
2017-11-25T13:54:53.862Z,7.60
2017-11-25T13:57:21.417Z,7.50
2017-11-25T13:59:48.961Z,9.90
2017-11-25T14:02:17.301Z,12.03
2017-11-25T14:04:44.857Z,11.97
2017-11-25T14:07:12.429Z,16.53
2017-11-25T14:09:39.976Z,14.87
2017-11-25T14:12:07.548Z,15.37
2017-11-25T14:14:35.125Z,10.87
2017-11-25T14:17:03.471Z,8.43
2017-11-25T14:19:31.024Z,10.17
2017-11-25T14:21:58.596Z,8.77
2017-11-25T14:24:26.151Z,11.60
2017-11-25T14:26:53.706Z,9.47
2017-11-25T14:29:21.276Z,6.57
2017-11-25T14:31:48.856Z,8.20
2017-11-25T14:34:16.399Z,6.60
2017-11-25T14:36:43.957Z,7.43
2017-11-25T14:39:11.532Z,6.37
2017-11-25T14:41:39.074Z,10.10
2017-11-25T14:44:06.639Z,5.87
2017-11-25T14:46:34.198Z,8.57
2017-11-25T14:49:01.772Z,7.20
2017-11-25T14:51:29.308Z,6.17
2017-11-25T14:53:56.880Z,7.37
2017-11-25T14:56:24.421Z,6.97
2017-11-25T14:58:51.994Z,8.10
2017-11-25T15:01:19.533Z,7.33
2017-11-25T15:03:47.098Z,7.93
2017-11-25T15:06:14.638Z,8.27
2017-11-25T15:08:42.204Z,8.70
2017-11-25T15:11:09.739Z,9.50
2017-11-25T15:13:38.079Z,10.37
2017-11-25T15:16:05.607Z,7.83
2017-11-25T15:18:33.170Z,8.30
2017-11-25T15:21:00.693Z,6.60
2017-11-25T15:23:29.025Z,8.20
2017-11-25T15:25:56.567Z,8.67
2017-11-25T15:28:24.902Z,8.23
2017-11-25T15:30:53.212Z,6.60
2017-11-25T15:33:20.774Z,8.17
2017-11-25T15:35:48.323Z,9.30
2017-11-25T15:38:15.882Z,6.63
2017-11-25T15:40:43.421Z,6.70
2017-11-25T15:43:11.748Z,10.23
2017-11-25T15:45:39.292Z,9.83
2017-11-25T15:48:06.848Z,8.63
2017-11-25T15:50:34.382Z,8.20
2017-11-25T15:53:02.710Z,8.53
2017-11-25T15:55:30.283Z,9.50
2017-11-25T15:57:57.829Z,8.10
2017-11-25T16:00:25.361Z,8.20
2017-11-25T16:02:56.387Z,8.73
2017-11-25T16:05:23.919Z,7.97
2017-11-25T16:07:51.484Z,10.80
2017-11-25T16:10:19.012Z,7.77
2017-11-25T16:12:46.562Z,8.40
2017-11-25T16:15:14.104Z,7.60
2017-11-25T16:17:41.669Z,9.17
2017-11-25T16:20:09.205Z,7.43
2017-11-25T16:22:37.531Z,10.20
2017-11-25T16:25:05.075Z,10.17
2017-11-25T16:27:32.638Z,14.73
2017-11-25T16:30:00.179Z,13.80
2017-11-25T16:32:27.754Z,14.50
2017-11-25T16:34:55.289Z,18.13
2017-11-25T16:37:22.859Z,16.27
2017-11-25T16:39:50.394Z,14.93
2017-11-25T16:42:18.734Z,16.00
2017-11-25T16:44:46.273Z,13.73
2017-11-25T16:47:13.804Z,14.97
2017-11-25T16:49:41.364Z,15.27
2017-11-25T16:52:08.896Z,12.87
2017-11-25T16:54:36.460Z,14.40
2017-11-25T16:57:04.761Z,13.40
2017-11-25T16:59:32.321Z,14.30
2017-11-25T17:02:00.736Z,11.10
2017-11-25T17:04:28.434Z,10.93
2017-11-25T17:06:56.030Z,14.00
2017-11-25T17:09:23.587Z,12.37
2017-11-25T17:11:51.154Z,18.77
2017-11-25T17:14:18.720Z,19.27
2017-11-25T17:16:46.271Z,19.27
2017-11-25T17:19:13.856Z,22.83
2017-11-25T17:21:41.396Z,24.77
2017-11-25T17:24:08.971Z,25.50
2017-11-25T17:26:36.528Z,18.70
2017-11-25T17:29:04.089Z,20.43
2017-11-25T17:31:31.627Z,15.83
2017-11-25T17:33:59.195Z,14.03
2017-11-25T17:36:26.737Z,18.43
2017-11-25T17:38:54.324Z,13.57
2017-11-25T17:41:21.849Z,12.70
2017-11-25T17:43:50.167Z,17.10
2017-11-25T17:46:17.712Z,12.27
2017-11-25T17:48:45.275Z,14.57
2017-11-25T17:51:12.815Z,16.80
2017-11-25T17:53:41.147Z,16.27
2017-11-25T17:56:08.682Z,11.60
2017-11-25T17:58:36.241Z,15.67
2017-11-25T18:01:03.776Z,12.13
2017-11-25T18:03:32.097Z,11.07
2017-11-25T18:05:59.635Z,14.40
2017-11-25T18:08:27.192Z,11.00
2017-11-25T18:10:54.724Z,12.97
2017-11-25T18:13:22.286Z,13.23
2017-11-25T18:15:50.580Z,10.77
2017-11-25T18:18:18.141Z,12.60
2017-11-25T18:20:45.670Z,12.30
2017-11-25T18:23:14.004Z,12.67
2017-11-25T18:25:41.533Z,13.77
2017-11-25T18:28:09.096Z,16.67
2017-11-25T18:30:36.636Z,14.00
2017-11-25T18:33:04.964Z,14.40
2017-11-25T18:35:32.496Z,14.80
2017-11-25T18:38:00.054Z,14.70
2017-11-25T18:40:27.596Z,13.40
2017-11-25T18:42:55.922Z,9.87
2017-11-25T18:45:23.451Z,10.00
2017-11-25T18:47:51.785Z,11.60
2017-11-25T18:50:19.357Z,10.80
2017-11-25T18:52:47.667Z,12.13
2017-11-25T18:55:15.235Z,10.23
2017-11-25T18:57:42.780Z,9.60
2017-11-25T19:00:10.344Z,9.13
2017-11-25T19:02:37.881Z,8.30
2017-11-25T19:05:06.201Z,9.27
2017-11-25T19:07:33.734Z,8.57
2017-11-25T19:10:01.288Z,9.97
2017-11-25T19:12:28.828Z,7.50
2017-11-25T19:14:57.159Z,8.90
2017-11-25T19:17:24.679Z,10.03
2017-11-25T19:19:53.020Z,5.13
2017-11-25T19:22:20.570Z,6.97
2017-11-25T19:24:48.124Z,5.53
2017-11-25T19:27:15.645Z,5.07
2017-11-25T19:29:43.212Z,6.43
2017-11-25T19:32:10.773Z,5.10
2017-11-25T19:34:38.339Z,8.73
2017-11-25T19:37:05.874Z,6.90
2017-11-25T19:39:34.200Z,5.53
2017-11-25T19:42:01.788Z,7.10
2017-11-25T19:44:30.250Z,7.63
2017-11-25T19:46:57.883Z,6.40
2017-11-25T19:49:25.540Z,7.40
2017-11-25T19:51:53.077Z,8.40
2017-11-25T19:54:20.740Z,7.63
2017-11-25T19:56:49.092Z,6.83
2017-11-25T19:59:16.661Z,7.50
2017-11-25T20:01:44.964Z,15.13
2017-11-25T20:04:12.672Z,13.63
2017-11-25T20:06:40.306Z,12.10
2017-11-25T20:09:07.959Z,10.00
2017-11-25T20:11:35.521Z,8.20
2017-11-25T20:14:03.240Z,10.63
2017-11-25T20:16:30.897Z,13.00
2017-11-25T20:18:58.516Z,12.97
2017-11-25T20:21:26.109Z,12.77
2017-11-25T20:23:53.667Z,12.87
2017-11-25T20:26:21.304Z,11.00
2017-11-25T20:28:48.880Z,13.93
2017-11-25T20:31:16.530Z,14.17
2017-11-25T20:33:44.208Z,13.83
2017-11-25T20:36:11.824Z,16.20
2017-11-25T20:38:39.455Z,17.53
2017-11-25T20:41:07.814Z,15.97
2017-11-25T20:43:35.417Z,18.17
2017-11-25T20:46:03.750Z,15.47
2017-11-25T20:48:31.405Z,15.83
2017-11-25T20:50:59.036Z,16.07
2017-11-25T20:53:26.652Z,19.60
2017-11-25T20:55:54.991Z,18.83
2017-11-25T20:58:22.559Z,19.43
2017-11-25T21:00:50.241Z,17.77
2017-11-25T21:03:17.897Z,18.10
2017-11-25T21:05:45.508Z,20.50
2017-11-25T21:08:13.208Z,20.07
2017-11-25T21:10:41.573Z,18.50
2017-11-25T21:13:09.147Z,21.50
2017-11-25T21:15:36.865Z,16.37
2017-11-25T21:18:05.275Z,15.97
2017-11-25T21:20:32.986Z,19.43
2017-11-25T21:23:00.609Z,17.20
2017-11-25T21:25:28.272Z,20.23
2017-11-25T21:27:55.883Z,15.83
2017-11-25T21:30:23.601Z,17.63
2017-11-25T21:32:51.283Z,22.00
2017-11-25T21:35:18.927Z,20.57
2017-11-25T21:37:46.564Z,23.73
2017-11-25T21:40:14.299Z,18.20
2017-11-25T21:42:41.980Z,16.30
2017-11-25T21:45:09.629Z,20.53
2017-11-25T21:47:37.981Z,18.57
2017-11-25T21:50:06.440Z,15.23
2017-11-25T21:52:34.019Z,22.40
2017-11-25T21:55:01.695Z,16.70
2017-11-25T21:57:29.316Z,19.70
2017-11-25T21:59:56.868Z,20.93
2017-11-25T22:02:24.429Z,16.97
2017-11-25T22:04:52.735Z,17.70
2017-11-25T22:07:20.320Z,24.40
2017-11-25T22:09:47.876Z,17.23
2017-11-25T22:12:15.442Z,17.63
2017-11-25T22:14:42.990Z,18.40
2017-11-25T22:17:10.561Z,18.47
2017-11-25T22:19:38.150Z,17.90
2017-11-25T22:22:05.769Z,19.03
2017-11-25T22:24:33.323Z,19.70
2017-11-25T22:27:00.919Z,19.87
2017-11-25T22:29:29.259Z,20.40
2017-11-25T22:32:02.628Z,19.40
2017-11-25T22:34:30.173Z,17.60
2017-11-25T22:36:57.733Z,20.63
2017-11-25T22:39:25.273Z,24.20
2017-11-25T22:41:53.597Z,19.40
2017-11-25T22:44:21.132Z,14.93
2017-11-25T22:46:48.696Z,14.73
2017-11-25T22:49:16.232Z,14.23
2017-11-25T22:51:44.561Z,19.50
2017-11-25T22:54:12.098Z,14.40
2017-11-25T22:56:39.663Z,13.90
2017-11-25T22:59:07.194Z,22.10
2017-11-25T23:01:34.769Z,11.87
2017-11-25T23:04:02.300Z,15.53
2017-11-25T23:06:30.625Z,13.87
2017-11-25T23:08:58.161Z,14.37
2017-11-25T23:11:25.721Z,17.60
2017-11-25T23:13:53.259Z,16.50
2017-11-25T23:16:21.567Z,12.40
2017-11-25T23:18:49.120Z,14.30
2017-11-25T23:21:16.652Z,15.30
2017-11-25T23:23:44.971Z,11.23
2017-11-25T23:26:12.504Z,13.80
2017-11-25T23:28:40.076Z,14.77
2017-11-25T23:31:07.608Z,14.27
2017-11-25T23:33:35.950Z,12.17
2017-11-25T23:36:03.516Z,10.97
2017-11-25T23:38:31.079Z,14.50
2017-11-25T23:40:58.622Z,9.60
2017-11-25T23:43:26.197Z,12.30
2017-11-25T23:45:53.753Z,12.87
2017-11-25T23:48:21.331Z,13.30
2017-11-25T23:50:58.225Z,12.00
2017-11-25T23:53:26.576Z,14.30
2017-11-25T23:55:54.127Z,12.07
2017-11-25T23:58:21.692Z,15.97
